Terminal Aerodrome Forecast
Issued by NWS

Home | Current Version | Previous Version | Text Only | Print | Product List | Glossary Off
Versions: 1 2 3 4 5 6 7 8 9 10 11 12 13 14 15 16 17 18 19 20

000
FTUS42 KMHX 130500
TAFPGV
TAF
KPGV 130532Z 1306/1406 18004KT P6SM SKC
      TEMPO 1310/1312 5SM BR SCT002
     FM131500 19010G18KT P6SM SCT060
     FM140500 18006KT P6SM SCT020
      AMD LTD TO CLD VIS AND WIND=

USA.gov is the U.S. government's official web portal to all federal, state and local government web resources and services.